createdAt,value
2019-02-17T00:03:43.667Z,23.90
2019-02-17T00:08:45.893Z,24.70
2019-02-17T00:13:48.924Z,23.73
2019-02-17T00:18:51.196Z,25.53
2019-02-17T00:23:54.151Z,23.60
2019-02-17T00:28:59.522Z,28.60
2019-02-17T00:34:01.893Z,23.60
2019-02-17T00:39:06.033Z,21.53
2019-02-17T00:44:09.223Z,26.37
2019-02-17T00:49:12.314Z,27.70
2019-02-17T00:54:15.691Z,21.67
2019-02-17T00:59:18.494Z,22.87
2019-02-17T01:04:20.656Z,23.80
2019-02-17T01:09:23.135Z,20.63
2019-02-17T01:14:25.671Z,24.00
2019-02-17T01:19:27.879Z,20.43
2019-02-17T01:24:31.007Z,23.30
2019-02-17T01:29:34.175Z,22.90
2019-02-17T01:34:36.438Z,20.80
2019-02-17T01:39:39.031Z,22.73
2019-02-17T01:44:42.033Z,27.10
2019-02-17T01:49:44.565Z,22.30
2019-02-17T01:54:47.092Z,25.17
2019-02-17T01:59:49.564Z,23.43
2019-02-17T02:04:52.153Z,24.60
2019-02-17T02:09:54.638Z,26.27
2019-02-17T02:14:57.449Z,23.30
2019-02-17T02:19:59.919Z,21.23
2019-02-17T02:25:02.363Z,20.43
2019-02-17T02:30:07.285Z,21.70
2019-02-17T02:35:09.911Z,28.77
2019-02-17T02:40:12.129Z,27.07
2019-02-17T02:45:14.968Z,24.57
2019-02-17T02:50:18.069Z,24.40
2019-02-17T02:55:20.555Z,25.47
2019-02-17T03:00:23.569Z,24.23
2019-02-17T03:05:26.668Z,27.70
2019-02-17T03:10:29.773Z,24.07
2019-02-17T03:15:31.969Z,28.47
2019-02-17T03:20:35.056Z,23.37
2019-02-17T03:25:37.262Z,23.80
2019-02-17T03:30:39.521Z,26.70
2019-02-17T03:35:42.445Z,24.67
2019-02-17T03:40:45.446Z,27.83
2019-02-17T03:45:48.011Z,27.50
2019-02-17T03:50:51.141Z,23.80
2019-02-17T03:55:54.214Z,22.67
2019-02-17T04:00:57.062Z,25.07
2019-02-17T04:05:59.487Z,26.20
2019-02-17T04:11:01.743Z,24.47
2019-02-17T04:16:04.288Z,26.87
2019-02-17T04:21:07.700Z,24.93
2019-02-17T04:26:10.135Z,26.57
2019-02-17T04:31:13.040Z,30.77
2019-02-17T04:36:15.386Z,32.30
2019-02-17T04:41:17.600Z,29.20
2019-02-17T04:46:20.755Z,22.60
2019-02-17T04:51:23.303Z,24.27
2019-02-17T04:56:26.516Z,27.27
2019-02-17T05:01:28.869Z,22.50
2019-02-17T05:06:32.928Z,21.97
2019-02-17T05:11:35.129Z,23.60
2019-02-17T05:16:38.202Z,22.93
2019-02-17T05:21:40.925Z,31.60
2019-02-17T05:26:44.379Z,24.13
2019-02-17T05:31:46.589Z,23.40
2019-02-17T05:36:49.138Z,25.67
2019-02-17T05:41:51.624Z,27.07
2019-02-17T05:46:54.031Z,28.63
2019-02-17T05:51:56.177Z,22.87
2019-02-17T05:56:58.956Z,24.20
2019-02-17T06:02:01.387Z,23.87
2019-02-17T06:07:03.589Z,22.83
2019-02-17T06:12:05.800Z,22.83
2019-02-17T06:17:08.031Z,23.17
2019-02-17T06:22:10.354Z,23.83
2019-02-17T06:27:12.634Z,19.80
2019-02-17T06:32:14.797Z,23.57
2019-02-17T06:37:16.988Z,24.03
2019-02-17T06:42:22.443Z,23.83
2019-02-17T06:47:29.431Z,27.30
2019-02-17T06:52:31.618Z,26.23
2019-02-17T06:57:37.486Z,24.00
2019-02-17T07:02:39.755Z,23.67
2019-02-17T07:07:42.071Z,41.80
2019-02-17T07:12:44.897Z,32.67
2019-02-17T07:17:47.856Z,28.77
2019-02-17T07:22:50.090Z,28.40
2019-02-17T07:27:52.497Z,30.27
2019-02-17T07:32:54.897Z,30.47
2019-02-17T07:37:58.136Z,24.87
2019-02-17T07:43:01.243Z,23.30
2019-02-17T07:48:03.636Z,31.03
2019-02-17T07:53:06.399Z,27.33
2019-02-17T07:58:09.748Z,30.37
2019-02-17T08:03:12.282Z,30.33
2019-02-17T08:08:14.574Z,24.17
2019-02-17T08:13:23.795Z,21.77
2019-02-17T08:18:26.645Z,22.10
2019-02-17T08:23:29.602Z,20.23
2019-02-17T08:28:31.970Z,20.50
2019-02-17T08:33:34.489Z,22.57
2019-02-17T08:38:37.114Z,20.00
2019-02-17T08:43:39.504Z,19.07
2019-02-17T08:48:43.584Z,23.00
2019-02-17T08:53:46.569Z,20.73
2019-02-17T08:58:49.568Z,20.23
2019-02-17T09:03:52.232Z,19.53
2019-02-17T09:08:57.657Z,19.93
2019-02-17T09:14:00.707Z,26.30
2019-02-17T09:19:04.073Z,20.63
2019-02-17T09:24:07.290Z,22.43
2019-02-17T09:29:09.611Z,24.07
2019-02-17T09:34:12.443Z,21.17
2019-02-17T09:39:14.803Z,25.87
2019-02-17T09:44:17.202Z,24.33
2019-02-17T09:49:20.121Z,27.77
2019-02-17T09:54:23.027Z,27.10
2019-02-17T09:59:25.341Z,25.27
2019-02-17T10:04:27.702Z,27.73
2019-02-17T10:09:29.986Z,29.83
2019-02-17T10:14:32.542Z,26.33
2019-02-17T10:19:35.363Z,33.27
2019-02-17T10:24:38.753Z,44.17
2019-02-17T10:29:41.243Z,33.00
2019-02-17T10:34:43.767Z,34.17
2019-02-17T10:39:46.228Z,36.07
2019-02-17T10:44:50.033Z,32.80
2019-02-17T10:49:52.319Z,33.27
2019-02-17T10:54:55.192Z,31.17
2019-02-17T11:00:00.932Z,31.57
2019-02-17T11:05:04.063Z,34.80
2019-02-17T11:10:08.134Z,32.07
2019-02-17T11:15:14.210Z,31.23
2019-02-17T11:57:30.320Z,33.13
2019-02-17T19:08:50.553Z,30.50
2019-02-17T19:13:52.906Z,34.03
2019-02-17T19:18:55.212Z,34.90
2019-02-17T19:23:57.525Z,43.10
2019-02-17T19:29:00.536Z,38.43
2019-02-17T19:34:03.100Z,35.27
2019-02-17T19:39:05.719Z,35.50
2019-02-17T19:44:09.034Z,35.43
2019-02-17T19:49:12.135Z,40.50
2019-02-17T19:54:16.152Z,36.70
2019-02-17T19:59:18.435Z,36.77
2019-02-17T20:04:33.222Z,38.20
2019-02-17T20:09:35.450Z,37.27
2019-02-17T20:14:38.521Z,40.30
2019-02-17T20:19:41.722Z,50.43
2019-02-17T20:24:44.924Z,44.53
2019-02-17T20:29:47.709Z,45.87
2019-02-17T20:34:50.013Z,45.67
2019-02-17T20:39:53.326Z,44.87
2019-02-17T20:44:56.003Z,47.70
2019-02-17T20:49:58.947Z,46.17
2019-02-17T20:55:01.230Z,46.63
2019-02-17T21:00:04.064Z,45.87
2019-02-17T21:05:07.406Z,45.57
2019-02-17T21:10:09.940Z,48.23
2019-02-17T21:15:13.415Z,44.97
2019-02-17T21:20:17.077Z,42.50
2019-02-17T21:25:19.337Z,44.97
2019-02-17T21:30:21.869Z,42.27
2019-02-17T21:35:24.361Z,42.50
2019-02-17T21:40:27.140Z,49.80
2019-02-17T21:45:29.419Z,43.90
2019-02-17T21:50:32.807Z,49.80
2019-02-17T21:55:36.043Z,46.33
2019-02-17T22:00:38.340Z,49.57
2019-02-17T22:05:41.305Z,49.40
2019-02-17T22:10:43.552Z,52.20
2019-02-17T22:15:45.804Z,49.97
2019-02-17T22:20:48.601Z,46.60
2019-02-17T22:25:51.855Z,44.80
2019-02-17T22:30:54.267Z,42.30
2019-02-17T22:35:57.980Z,44.70
2019-02-17T22:41:00.620Z,42.10
2019-02-17T22:46:03.645Z,46.07
2019-02-17T22:51:05.876Z,39.50
2019-02-17T22:56:08.807Z,43.70
2019-02-17T23:01:16.392Z,46.90
2019-02-17T23:06:19.582Z,42.83
2019-02-17T23:11:22.296Z,38.50
2019-02-17T23:16:24.899Z,41.60
2019-02-17T23:21:27.783Z,38.90
2019-02-17T23:26:30.052Z,42.87
2019-02-17T23:31:32.300Z,44.73
2019-02-17T23:36:34.816Z,40.30
2019-02-17T23:41:37.607Z,40.50
2019-02-17T23:46:40.937Z,40.33
2019-02-17T23:51:43.193Z,41.93
2019-02-17T23:56:45.729Z,42.60
